sensor_id;sensor_type;location;lat;lon;timestamp;P1;durP1;ratioP1;P2;durP2;ratioP2
13660;SDS011;6903;49.480;11.102;2023-03-23T00:01:01;7.70;;;3.97;;
13660;SDS011;6903;49.480;11.102;2023-03-23T00:03:27;5.17;;;3.67;;
13660;SDS011;6903;49.480;11.102;2023-03-23T00:05:54;5.43;;;4.00;;
13660;SDS011;6903;49.480;11.102;2023-03-23T00:08:24;5.53;;;3.60;;
13660;SDS011;6903;49.480;11.102;2023-03-23T00:10:51;4.67;;;3.77;;
13660;SDS011;6903;49.480;11.102;2023-03-23T00:13:18;6.70;;;4.17;;
13660;SDS011;6903;49.480;11.102;2023-03-23T00:15:45;4.50;;;3.90;;
13660;SDS011;6903;49.480;11.102;2023-03-23T00:18:13;4.40;;;3.57;;
13660;SDS011;6903;49.480;11.102;2023-03-23T00:20:49;4.33;;;3.50;;
13660;SDS011;6903;49.480;11.102;2023-03-23T00:23:17;4.37;;;3.77;;
13660;SDS011;6903;49.480;11.102;2023-03-23T00:25:47;4.37;;;3.67;;
13660;SDS011;6903;49.480;11.102;2023-03-23T00:28:15;7.17;;;4.23;;
13660;SDS011;6903;49.480;11.102;2023-03-23T00:30:41;4.67;;;3.80;;
13660;SDS011;6903;49.480;11.102;2023-03-23T00:33:08;6.27;;;3.70;;
13660;SDS011;6903;49.480;11.102;2023-03-23T00:35:33;5.07;;;4.00;;
13660;SDS011;6903;49.480;11.102;2023-03-23T00:38:00;5.40;;;3.80;;
13660;SDS011;6903;49.480;11.102;2023-03-23T00:40:27;4.83;;;3.77;;
13660;SDS011;6903;49.480;11.102;2023-03-23T00:42:52;5.50;;;3.77;;
13660;SDS011;6903;49.480;11.102;2023-03-23T00:45:18;6.73;;;3.57;;
13660;SDS011;6903;49.480;11.102;2023-03-23T00:47:43;7.87;;;4.10;;
13660;SDS011;6903;49.480;11.102;2023-03-23T00:50:11;6.13;;;3.80;;
13660;SDS011;6903;49.480;11.102;2023-03-23T00:52:38;8.47;;;3.80;;
13660;SDS011;6903;49.480;11.102;2023-03-23T00:55:04;5.37;;;3.80;;
13660;SDS011;6903;49.480;11.102;2023-03-23T00:57:30;4.90;;;3.40;;
13660;SDS011;6903;49.480;11.102;2023-03-23T00:59:56;4.37;;;3.27;;
13660;SDS011;6903;49.480;11.102;2023-03-23T01:02:21;4.77;;;3.23;;
13660;SDS011;6903;49.480;11.102;2023-03-23T01:04:50;4.53;;;3.53;;
13660;SDS011;6903;49.480;11.102;2023-03-23T01:07:17;3.57;;;2.80;;
13660;SDS011;6903;49.480;11.102;2023-03-23T01:09:43;3.70;;;2.93;;
13660;SDS011;6903;49.480;11.102;2023-03-23T01:12:09;4.73;;;3.27;;
13660;SDS011;6903;49.480;11.102;2023-03-23T01:14:35;4.00;;;3.13;;
13660;SDS011;6903;49.480;11.102;2023-03-23T01:17:01;3.80;;;3.00;;
13660;SDS011;6903;49.480;11.102;2023-03-23T01:19:27;4.07;;;2.90;;
13660;SDS011;6903;49.480;11.102;2023-03-23T01:21:52;4.67;;;3.00;;
13660;SDS011;6903;49.480;11.102;2023-03-23T01:24:17;5.57;;;3.90;;
13660;SDS011;6903;49.480;11.102;2023-03-23T01:26:42;4.33;;;3.50;;
13660;SDS011;6903;49.480;11.102;2023-03-23T01:29:08;6.33;;;4.17;;
13660;SDS011;6903;49.480;11.102;2023-03-23T01:31:33;5.57;;;4.00;;
13660;SDS011;6903;49.480;11.102;2023-03-23T01:34:01;4.53;;;3.50;;
13660;SDS011;6903;49.480;11.102;2023-03-23T01:36:27;4.83;;;3.20;;
13660;SDS011;6903;49.480;11.102;2023-03-23T01:38:53;5.37;;;3.40;;
13660;SDS011;6903;49.480;11.102;2023-03-23T01:41:20;3.83;;;3.43;;
13660;SDS011;6903;49.480;11.102;2023-03-23T01:43:56;3.60;;;3.20;;
13660;SDS011;6903;49.480;11.102;2023-03-23T01:46:25;3.67;;;3.10;;
13660;SDS011;6903;49.480;11.102;2023-03-23T01:48:51;3.50;;;3.10;;
13660;SDS011;6903;49.480;11.102;2023-03-23T01:51:17;3.10;;;2.70;;
13660;SDS011;6903;49.480;11.102;2023-03-23T01:53:46;3.33;;;2.87;;
13660;SDS011;6903;49.480;11.102;2023-03-23T01:56:16;4.97;;;2.97;;
13660;SDS011;6903;49.480;11.102;2023-03-23T01:58:45;4.63;;;3.03;;
13660;SDS011;6903;49.480;11.102;2023-03-23T02:01:12;4.53;;;2.83;;
13660;SDS011;6903;49.480;11.102;2023-03-23T02:03:41;4.40;;;2.93;;
13660;SDS011;6903;49.480;11.102;2023-03-23T02:06:08;4.47;;;3.10;;
13660;SDS011;6903;49.480;11.102;2023-03-23T02:08:34;5.57;;;2.90;;
13660;SDS011;6903;49.480;11.102;2023-03-23T02:11:00;3.90;;;2.90;;
13660;SDS011;6903;49.480;11.102;2023-03-23T02:13:26;4.73;;;3.00;;
13660;SDS011;6903;49.480;11.102;2023-03-23T02:21:17;4.90;;;2.97;;
13660;SDS011;6903;49.480;11.102;2023-03-23T02:27:13;4.17;;;2.40;;
13660;SDS011;6903;49.480;11.102;2023-03-23T02:35:26;3.70;;;2.60;;
13660;SDS011;6903;49.480;11.102;2023-03-23T02:38:10;2.60;;;2.40;;
13660;SDS011;6903;49.480;11.102;2023-03-23T02:40:45;2.90;;;2.40;;
13660;SDS011;6903;49.480;11.102;2023-03-23T02:43:13;2.80;;;2.10;;
13660;SDS011;6903;49.480;11.102;2023-03-23T02:45:41;2.30;;;2.10;;
13660;SDS011;6903;49.480;11.102;2023-03-23T02:48:09;2.70;;;2.40;;
13660;SDS011;6903;49.480;11.102;2023-03-23T02:50:37;6.33;;;2.70;;
13660;SDS011;6903;49.480;11.102;2023-03-23T02:53:05;3.07;;;2.30;;
13660;SDS011;6903;49.480;11.102;2023-03-23T02:55:35;2.97;;;2.27;;
13660;SDS011;6903;49.480;11.102;2023-03-23T02:58:07;3.17;;;2.37;;
13660;SDS011;6903;49.480;11.102;2023-03-23T03:00:35;2.87;;;2.30;;
13660;SDS011;6903;49.480;11.102;2023-03-23T03:03:03;2.20;;;2.00;;
13660;SDS011;6903;49.480;11.102;2023-03-23T03:05:51;3.70;;;2.07;;
13660;SDS011;6903;49.480;11.102;2023-03-23T03:08:37;3.77;;;2.10;;
13660;SDS011;6903;49.480;11.102;2023-03-23T03:11:09;2.27;;;2.00;;
13660;SDS011;6903;49.480;11.102;2023-03-23T03:18:54;3.60;;;1.90;;
13660;SDS011;6903;49.480;11.102;2023-03-23T03:21:27;2.77;;;2.33;;
13660;SDS011;6903;49.480;11.102;2023-03-23T03:23:55;2.33;;;1.93;;
13660;SDS011;6903;49.480;11.102;2023-03-23T03:26:26;2.70;;;1.63;;
13660;SDS011;6903;49.480;11.102;2023-03-23T03:28:53;2.37;;;2.00;;
13660;SDS011;6903;49.480;11.102;2023-03-23T03:31:20;2.97;;;2.10;;
13660;SDS011;6903;49.480;11.102;2023-03-23T03:33:51;2.23;;;1.93;;
13660;SDS011;6903;49.480;11.102;2023-03-23T03:36:17;2.93;;;1.83;;
13660;SDS011;6903;49.480;11.102;2023-03-23T03:38:46;2.40;;;1.90;;
13660;SDS011;6903;49.480;11.102;2023-03-23T03:41:13;5.00;;;2.17;;
13660;SDS011;6903;49.480;11.102;2023-03-23T03:43:39;2.67;;;2.03;;
13660;SDS011;6903;49.480;11.102;2023-03-23T03:46:04;2.67;;;2.17;;
13660;SDS011;6903;49.480;11.102;2023-03-23T03:48:30;4.07;;;2.00;;
13660;SDS011;6903;49.480;11.102;2023-03-23T03:50:55;3.23;;;2.00;;
13660;SDS011;6903;49.480;11.102;2023-03-23T03:53:22;3.90;;;2.07;;
13660;SDS011;6903;49.480;11.102;2023-03-23T03:55:48;3.63;;;2.13;;
13660;SDS011;6903;49.480;11.102;2023-03-23T03:58:15;3.47;;;1.97;;
13660;SDS011;6903;49.480;11.102;2023-03-23T04:00:41;2.17;;;1.70;;
13660;SDS011;6903;49.480;11.102;2023-03-23T04:03:07;2.33;;;1.80;;
13660;SDS011;6903;49.480;11.102;2023-03-23T04:05:34;2.83;;;2.10;;
13660;SDS011;6903;49.480;11.102;2023-03-23T04:08:01;3.00;;;2.00;;
13660;SDS011;6903;49.480;11.102;2023-03-23T04:10:27;2.63;;;1.90;;
13660;SDS011;6903;49.480;11.102;2023-03-23T04:12:54;2.23;;;1.80;;
13660;SDS011;6903;49.480;11.102;2023-03-23T04:15:19;2.10;;;1.90;;
13660;SDS011;6903;49.480;11.102;2023-03-23T04:17:45;1.70;;;1.60;;
13660;SDS011;6903;49.480;11.102;2023-03-23T04:20:10;2.73;;;1.73;;
13660;SDS011;6903;49.480;11.102;2023-03-23T04:22:40;2.00;;;1.60;;
13660;SDS011;6903;49.480;11.102;2023-03-23T04:25:09;1.90;;;1.70;;
13660;SDS011;6903;49.480;11.102;2023-03-23T04:27:36;2.50;;;1.70;;
13660;SDS011;6903;49.480;11.102;2023-03-23T04:30:01;3.07;;;1.53;;
13660;SDS011;6903;49.480;11.102;2023-03-23T04:32:28;2.07;;;1.70;;
13660;SDS011;6903;49.480;11.102;2023-03-23T04:34:54;3.13;;;1.80;;
13660;SDS011;6903;49.480;11.102;2023-03-23T04:37:21;2.10;;;1.90;;
13660;SDS011;6903;49.480;11.102;2023-03-23T04:39:50;2.33;;;1.93;;
13660;SDS011;6903;49.480;11.102;2023-03-23T04:42:28;2.00;;;1.70;;
13660;SDS011;6903;49.480;11.102;2023-03-23T04:44:55;2.37;;;1.90;;
13660;SDS011;6903;49.480;11.102;2023-03-23T04:47:24;2.83;;;2.00;;
13660;SDS011;6903;49.480;11.102;2023-03-23T04:49:54;1.70;;;1.60;;
13660;SDS011;6903;49.480;11.102;2023-03-23T04:52:22;2.13;;;1.77;;
13660;SDS011;6903;49.480;11.102;2023-03-23T04:54:49;3.87;;;1.93;;
13660;SDS011;6903;49.480;11.102;2023-03-23T04:57:15;2.07;;;1.70;;
13660;SDS011;6903;49.480;11.102;2023-03-23T04:59:41;3.53;;;1.77;;
13660;SDS011;6903;49.480;11.102;2023-03-23T05:02:07;3.30;;;1.83;;
13660;SDS011;6903;49.480;11.102;2023-03-23T05:04:32;2.93;;;1.90;;
13660;SDS011;6903;49.480;11.102;2023-03-23T05:06:58;2.53;;;2.10;;
13660;SDS011;6903;49.480;11.102;2023-03-23T05:09:23;3.10;;;1.90;;
13660;SDS011;6903;49.480;11.102;2023-03-23T05:11:49;4.33;;;1.80;;
13660;SDS011;6903;49.480;11.102;2023-03-23T05:14:14;2.37;;;1.97;;
13660;SDS011;6903;49.480;11.102;2023-03-23T05:16:39;2.20;;;1.77;;
13660;SDS011;6903;49.480;11.102;2023-03-23T05:19:05;1.70;;;1.60;;
13660;SDS011;6903;49.480;11.102;2023-03-23T05:21:31;3.40;;;2.07;;
13660;SDS011;6903;49.480;11.102;2023-03-23T05:23:56;2.87;;;1.97;;
13660;SDS011;6903;49.480;11.102;2023-03-23T05:26:22;2.23;;;1.73;;
13660;SDS011;6903;49.480;11.102;2023-03-23T05:28:49;1.90;;;1.70;;
13660;SDS011;6903;49.480;11.102;2023-03-23T05:31:17;2.70;;;1.80;;
13660;SDS011;6903;49.480;11.102;2023-03-23T05:33:43;2.57;;;1.77;;
13660;SDS011;6903;49.480;11.102;2023-03-23T05:36:09;2.90;;;1.97;;
13660;SDS011;6903;49.480;11.102;2023-03-23T05:38:35;2.03;;;1.80;;
13660;SDS011;6903;49.480;11.102;2023-03-23T05:41:01;3.43;;;1.83;;
13660;SDS011;6903;49.480;11.102;2023-03-23T05:43:26;2.67;;;1.90;;
13660;SDS011;6903;49.480;11.102;2023-03-23T05:45:52;2.77;;;2.03;;
13660;SDS011;6903;49.480;11.102;2023-03-23T05:48:17;2.77;;;1.90;;
13660;SDS011;6903;49.480;11.102;2023-03-23T05:50:43;3.27;;;2.00;;
13660;SDS011;6903;49.480;11.102;2023-03-23T05:53:08;2.33;;;2.10;;
13660;SDS011;6903;49.480;11.102;2023-03-23T05:55:34;4.57;;;2.10;;
13660;SDS011;6903;49.480;11.102;2023-03-23T05:58:00;3.73;;;2.10;;
13660;SDS011;6903;49.480;11.102;2023-03-23T06:00:25;2.40;;;2.20;;
13660;SDS011;6903;49.480;11.102;2023-03-23T06:02:54;3.67;;;2.07;;
13660;SDS011;6903;49.480;11.102;2023-03-23T06:05:21;2.50;;;2.10;;
13660;SDS011;6903;49.480;11.102;2023-03-23T06:07:47;4.10;;;2.20;;
13660;SDS011;6903;49.480;11.102;2023-03-23T06:10:12;3.10;;;2.30;;
13660;SDS011;6903;49.480;11.102;2023-03-23T06:12:38;3.40;;;2.23;;
13660;SDS011;6903;49.480;11.102;2023-03-23T06:15:05;3.17;;;2.20;;
13660;SDS011;6903;49.480;11.102;2023-03-23T06:17:31;2.90;;;2.17;;
13660;SDS011;6903;49.480;11.102;2023-03-23T06:19:57;2.37;;;2.00;;
13660;SDS011;6903;49.480;11.102;2023-03-23T06:22:22;3.87;;;2.20;;
13660;SDS011;6903;49.480;11.102;2023-03-23T06:24:48;2.60;;;1.97;;
13660;SDS011;6903;49.480;11.102;2023-03-23T06:27:14;5.00;;;2.63;;
13660;SDS011;6903;49.480;11.102;2023-03-23T06:29:41;4.30;;;2.20;;
13660;SDS011;6903;49.480;11.102;2023-03-23T06:32:06;4.60;;;2.23;;
13660;SDS011;6903;49.480;11.102;2023-03-23T06:34:32;3.50;;;2.50;;
13660;SDS011;6903;49.480;11.102;2023-03-23T06:36:57;6.13;;;2.57;;
13660;SDS011;6903;49.480;11.102;2023-03-23T06:39:23;4.63;;;2.53;;
13660;SDS011;6903;49.480;11.102;2023-03-23T06:41:49;4.00;;;2.20;;
13660;SDS011;6903;49.480;11.102;2023-03-23T06:44:14;3.33;;;2.80;;
13660;SDS011;6903;49.480;11.102;2023-03-23T06:46:40;5.07;;;2.57;;
13660;SDS011;6903;49.480;11.102;2023-03-23T06:49:07;4.57;;;2.67;;
13660;SDS011;6903;49.480;11.102;2023-03-23T06:51:33;3.30;;;2.37;;
13660;SDS011;6903;49.480;11.102;2023-03-23T06:53:58;8.00;;;2.63;;
13660;SDS011;6903;49.480;11.102;2023-03-23T06:56:24;4.57;;;2.50;;
13660;SDS011;6903;49.480;11.102;2023-03-23T06:58:50;5.20;;;2.70;;
13660;SDS011;6903;49.480;11.102;2023-03-23T07:01:15;3.80;;;2.67;;
13660;SDS011;6903;49.480;11.102;2023-03-23T07:03:41;3.27;;;2.63;;
13660;SDS011;6903;49.480;11.102;2023-03-23T07:06:07;3.83;;;2.73;;
13660;SDS011;6903;49.480;11.102;2023-03-23T07:08:33;4.50;;;2.97;;
13660;SDS011;6903;49.480;11.102;2023-03-23T07:10:59;5.93;;;2.97;;
13660;SDS011;6903;49.480;11.102;2023-03-23T07:13:24;3.63;;;2.47;;
13660;SDS011;6903;49.480;11.102;2023-03-23T07:15:50;4.47;;;2.70;;
13660;SDS011;6903;49.480;11.102;2023-03-23T07:18:15;5.57;;;2.43;;
13660;SDS011;6903;49.480;11.102;2023-03-23T07:20:41;4.37;;;2.40;;
13660;SDS011;6903;49.480;11.102;2023-03-23T07:23:06;6.00;;;2.70;;
13660;SDS011;6903;49.480;11.102;2023-03-23T07:25:32;5.03;;;3.03;;
13660;SDS011;6903;49.480;11.102;2023-03-23T07:27:59;4.63;;;2.67;;
13660;SDS011;6903;49.480;11.102;2023-03-23T07:30:26;4.33;;;2.87;;
13660;SDS011;6903;49.480;11.102;2023-03-23T07:32:51;3.73;;;2.60;;
13660;SDS011;6903;49.480;11.102;2023-03-23T07:35:17;4.47;;;3.10;;
13660;SDS011;6903;49.480;11.102;2023-03-23T07:37:42;4.27;;;3.20;;
13660;SDS011;6903;49.480;11.102;2023-03-23T07:40:08;3.27;;;2.70;;
13660;SDS011;6903;49.480;11.102;2023-03-23T07:42:40;5.83;;;3.23;;
13660;SDS011;6903;49.480;11.102;2023-03-23T07:45:07;3.70;;;2.90;;
13660;SDS011;6903;49.480;11.102;2023-03-23T07:47:33;4.30;;;2.70;;
13660;SDS011;6903;49.480;11.102;2023-03-23T07:49:58;4.60;;;2.83;;
13660;SDS011;6903;49.480;11.102;2023-03-23T07:52:23;5.73;;;3.17;;
13660;SDS011;6903;49.480;11.102;2023-03-23T07:54:49;4.10;;;3.00;;
13660;SDS011;6903;49.480;11.102;2023-03-23T07:57:14;4.40;;;3.20;;
13660;SDS011;6903;49.480;11.102;2023-03-23T07:59:39;6.27;;;3.53;;
13660;SDS011;6903;49.480;11.102;2023-03-23T08:02:05;5.50;;;3.50;;
13660;SDS011;6903;49.480;11.102;2023-03-23T08:04:34;4.77;;;3.37;;
13660;SDS011;6903;49.480;11.102;2023-03-23T08:07:02;7.27;;;3.60;;
13660;SDS011;6903;49.480;11.102;2023-03-23T08:09:27;5.33;;;3.60;;
13660;SDS011;6903;49.480;11.102;2023-03-23T08:11:53;4.50;;;3.30;;
13660;SDS011;6903;49.480;11.102;2023-03-23T08:14:18;5.80;;;3.33;;
13660;SDS011;6903;49.480;11.102;2023-03-23T08:16:43;6.07;;;3.70;;
13660;SDS011;6903;49.480;11.102;2023-03-23T08:19:09;7.13;;;3.60;;
13660;SDS011;6903;49.480;11.102;2023-03-23T08:21:34;7.57;;;4.00;;
13660;SDS011;6903;49.480;11.102;2023-03-23T08:24:00;4.93;;;3.40;;
13660;SDS011;6903;49.480;11.102;2023-03-23T08:26:26;5.50;;;3.43;;
13660;SDS011;6903;49.480;11.102;2023-03-23T08:28:52;4.10;;;3.33;;
13660;SDS011;6903;49.480;11.102;2023-03-23T08:31:18;4.67;;;3.60;;
13660;SDS011;6903;49.480;11.102;2023-03-23T08:33:43;5.10;;;3.80;;
13660;SDS011;6903;49.480;11.102;2023-03-23T08:36:09;7.50;;;4.30;;
13660;SDS011;6903;49.480;11.102;2023-03-23T08:38:34;4.43;;;3.57;;
13660;SDS011;6903;49.480;11.102;2023-03-23T08:41:01;5.93;;;3.60;;
13660;SDS011;6903;49.480;11.102;2023-03-23T08:43:29;5.90;;;4.10;;
13660;SDS011;6903;49.480;11.102;2023-03-23T08:45:55;5.43;;;4.47;;
13660;SDS011;6903;49.480;11.102;2023-03-23T08:48:21;5.77;;;3.57;;
13660;SDS011;6903;49.480;11.102;2023-03-23T08:50:48;5.17;;;3.93;;
13660;SDS011;6903;49.480;11.102;2023-03-23T08:53:14;6.57;;;3.80;;
13660;SDS011;6903;49.480;11.102;2023-03-23T08:55:39;6.57;;;4.03;;
13660;SDS011;6903;49.480;11.102;2023-03-23T08:58:05;6.67;;;3.73;;
13660;SDS011;6903;49.480;11.102;2023-03-23T09:00:30;4.87;;;3.43;;
13660;SDS011;6903;49.480;11.102;2023-03-23T09:02:56;5.27;;;3.77;;
13660;SDS011;6903;49.480;11.102;2023-03-23T09:05:22;4.97;;;3.97;;
13660;SDS011;6903;49.480;11.102;2023-03-23T09:07:50;4.40;;;3.97;;
13660;SDS011;6903;49.480;11.102;2023-03-23T09:10:17;5.60;;;3.83;;
13660;SDS011;6903;49.480;11.102;2023-03-23T09:12:43;5.03;;;3.80;;
13660;SDS011;6903;49.480;11.102;2023-03-23T09:15:11;4.33;;;3.90;;
13660;SDS011;6903;49.480;11.102;2023-03-23T09:17:39;5.07;;;3.70;;
13660;SDS011;6903;49.480;11.102;2023-03-23T09:20:10;4.47;;;3.70;;
13660;SDS011;6903;49.480;11.102;2023-03-23T09:22:40;6.80;;;3.77;;
13660;SDS011;6903;49.480;11.102;2023-03-23T09:25:07;5.80;;;3.80;;
13660;SDS011;6903;49.480;11.102;2023-03-23T09:27:34;4.43;;;3.90;;
13660;SDS011;6903;49.480;11.102;2023-03-23T09:30:02;6.13;;;3.63;;
13660;SDS011;6903;49.480;11.102;2023-03-23T09:32:31;6.33;;;3.70;;
13660;SDS011;6903;49.480;11.102;2023-03-23T09:34:57;6.90;;;3.77;;
13660;SDS011;6903;49.480;11.102;2023-03-23T09:37:23;4.37;;;3.50;;
13660;SDS011;6903;49.480;11.102;2023-03-23T09:39:48;5.68;;;3.33;;
13660;SDS011;6903;49.480;11.102;2023-03-23T09:42:30;6.17;;;3.63;;
13660;SDS011;6903;49.480;11.102;2023-03-23T09:50:42;3.53;;;2.97;;
13660;SDS011;6903;49.480;11.102;2023-03-23T09:53:15;5.30;;;3.17;;
13660;SDS011;6903;49.480;11.102;2023-03-23T09:55:45;3.72;;;2.78;;
13660;SDS011;6903;49.480;11.102;2023-03-23T10:00:54;8.60;;;3.00;;
13660;SDS011;6903;49.480;11.102;2023-03-23T10:03:29;4.07;;;2.85;;
13660;SDS011;6903;49.480;11.102;2023-03-23T10:05:59;5.03;;;2.75;;
13660;SDS011;6903;49.480;11.102;2023-03-23T10:08:26;4.53;;;3.30;;
13660;SDS011;6903;49.480;11.102;2023-03-23T10:16:31;5.35;;;3.15;;
13660;SDS011;6903;49.480;11.102;2023-03-23T10:19:12;4.18;;;3.03;;
13660;SDS011;6903;49.480;11.102;2023-03-23T10:22:11;4.60;;;3.00;;
13660;SDS011;6903;49.480;11.102;2023-03-23T10:24:52;3.08;;;2.53;;
13660;SDS011;6903;49.480;11.102;2023-03-23T10:27:33;3.83;;;2.90;;
13660;SDS011;6903;49.480;11.102;2023-03-23T10:30:24;7.22;;;3.00;;
13660;SDS011;6903;49.480;11.102;2023-03-23T10:35:43;3.63;;;2.80;;
13660;SDS011;6903;49.480;11.102;2023-03-23T10:38:14;5.13;;;3.05;;
13660;SDS011;6903;49.480;11.102;2023-03-23T10:40:49;2.78;;;2.53;;
13660;SDS011;6903;49.480;11.102;2023-03-23T10:43:18;3.38;;;2.60;;
13660;SDS011;6903;49.480;11.102;2023-03-23T10:45:45;2.85;;;2.53;;
13660;SDS011;6903;49.480;11.102;2023-03-23T10:48:22;2.88;;;2.60;;
13660;SDS011;6903;49.480;11.102;2023-03-23T10:50:54;4.47;;;2.93;;
13660;SDS011;6903;49.480;11.102;2023-03-23T10:53:23;4.47;;;2.60;;
13660;SDS011;6903;49.480;11.102;2023-03-23T10:55:54;4.87;;;2.40;;
13660;SDS011;6903;49.480;11.102;2023-03-23T10:58:24;1.92;;;1.83;;
13660;SDS011;6903;49.480;11.102;2023-03-23T11:00:54;3.95;;;1.70;;
13660;SDS011;6903;49.480;11.102;2023-03-23T11:03:24;2.13;;;1.75;;
13660;SDS011;6903;49.480;11.102;2023-03-23T11:05:59;2.05;;;1.85;;
13660;SDS011;6903;49.480;11.102;2023-03-23T11:08:29;2.70;;;1.65;;
13660;SDS011;6903;49.480;11.102;2023-03-23T11:14:00;1.88;;;1.60;;
13660;SDS011;6903;49.480;11.102;2023-03-23T11:16:31;5.57;;;2.00;;
13660;SDS011;6903;49.480;11.102;2023-03-23T11:18:59;2.00;;;1.80;;
13660;SDS011;6903;49.480;11.102;2023-03-23T11:21:26;2.37;;;1.60;;
13660;SDS011;6903;49.480;11.102;2023-03-23T11:23:57;3.03;;;1.70;;
13660;SDS011;6903;49.480;11.102;2023-03-23T11:26:25;2.83;;;1.47;;
13660;SDS011;6903;49.480;11.102;2023-03-23T11:29:09;6.40;;;4.13;;
13660;SDS011;6903;49.480;11.102;2023-03-23T11:31:42;2.95;;;1.85;;
13660;SDS011;6903;49.480;11.102;2023-03-23T11:34:36;2.53;;;1.70;;
13660;SDS011;6903;49.480;11.102;2023-03-23T11:37:11;2.33;;;1.90;;
13660;SDS011;6903;49.480;11.102;2023-03-23T11:39:47;2.20;;;1.57;;
13660;SDS011;6903;49.480;11.102;2023-03-23T11:42:37;2.37;;;1.70;;
13660;SDS011;6903;49.480;11.102;2023-03-23T11:45:20;1.70;;;1.47;;
13660;SDS011;6903;49.480;11.102;2023-03-23T11:50:20;3.25;;;1.80;;
13660;SDS011;6903;49.480;11.102;2023-03-23T11:58:13;2.25;;;1.50;;
13660;SDS011;6903;49.480;11.102;2023-03-23T12:00:46;3.13;;;1.92;;
13660;SDS011;6903;49.480;11.102;2023-03-23T12:03:21;3.63;;;1.73;;
13660;SDS011;6903;49.480;11.102;2023-03-23T12:06:08;2.13;;;1.90;;
13660;SDS011;6903;49.480;11.102;2023-03-23T12:14:03;2.30;;;1.65;;
13660;SDS011;6903;49.480;11.102;2023-03-23T12:19:27;1.93;;;1.73;;
13660;SDS011;6903;49.480;11.102;2023-03-23T12:35:45;1.70;;;1.60;;
13660;SDS011;6903;49.480;11.102;2023-03-23T12:38:16;3.25;;;1.70;;
13660;SDS011;6903;49.480;11.102;2023-03-23T12:51:57;2.28;;;1.60;;
13660;SDS011;6903;49.480;11.102;2023-03-23T12:54:35;4.75;;;1.60;;
13660;SDS011;6903;49.480;11.102;2023-03-23T12:57:22;1.90;;;1.17;;
13660;SDS011;6903;49.480;11.102;2023-03-23T13:02:43;2.20;;;1.20;;
13660;SDS011;6903;49.480;11.102;2023-03-23T13:08:35;1.55;;;1.27;;
13660;SDS011;6903;49.480;11.102;2023-03-23T13:13:59;1.42;;;1.20;;
13660;SDS011;6903;49.480;11.102;2023-03-23T13:16:14;1.23;;;1.10;;
13660;SDS011;6903;49.480;11.102;2023-03-23T13:18:55;2.22;;;1.10;;
13660;SDS011;6903;49.480;11.102;2023-03-23T13:21:31;1.75;;;1.30;;
13660;SDS011;6903;49.480;11.102;2023-03-23T13:24:00;1.60;;;1.42;;
13660;SDS011;6903;49.480;11.102;2023-03-23T13:26:29;1.27;;;1.17;;
13660;SDS011;6903;49.480;11.102;2023-03-23T13:28:56;2.10;;;1.23;;
13660;SDS011;6903;49.480;11.102;2023-03-23T13:31:31;1.30;;;1.20;;
13660;SDS011;6903;49.480;11.102;2023-03-23T13:36:28;1.40;;;1.30;;
13660;SDS011;6903;49.480;11.102;2023-03-23T13:38:54;1.67;;;1.30;;
13660;SDS011;6903;49.480;11.102;2023-03-23T13:41:22;2.33;;;1.30;;
13660;SDS011;6903;49.480;11.102;2023-03-23T13:43:48;1.98;;;1.65;;
13660;SDS011;6903;49.480;11.102;2023-03-23T13:46:29;2.28;;;1.48;;
13660;SDS011;6903;49.480;11.102;2023-03-23T13:49:13;2.50;;;1.30;;
13660;SDS011;6903;49.480;11.102;2023-03-23T13:57:48;1.60;;;1.50;;
13660;SDS011;6903;49.480;11.102;2023-03-23T14:05:36;1.42;;;1.27;;
13660;SDS011;6903;49.480;11.102;2023-03-23T14:10:52;2.13;;;1.25;;
13660;SDS011;6903;49.480;11.102;2023-03-23T14:13:25;3.08;;;1.58;;
13660;SDS011;6903;49.480;11.102;2023-03-23T14:16:00;1.88;;;1.52;;
13660;SDS011;6903;49.480;11.102;2023-03-23T14:18:37;1.38;;;1.27;;
13660;SDS011;6903;49.480;11.102;2023-03-23T14:21:05;2.55;;;1.50;;
13660;SDS011;6903;49.480;11.102;2023-03-23T14:23:38;2.75;;;1.52;;
13660;SDS011;6903;49.480;11.102;2023-03-23T14:26:09;3.55;;;1.70;;
13660;SDS011;6903;49.480;11.102;2023-03-23T14:28:38;2.22;;;1.50;;
13660;SDS011;6903;49.480;11.102;2023-03-23T14:31:08;1.60;;;1.50;;
13660;SDS011;6903;49.480;11.102;2023-03-23T14:33:42;1.48;;;1.38;;
13660;SDS011;6903;49.480;11.102;2023-03-23T14:36:08;1.80;;;1.50;;
13660;SDS011;6903;49.480;11.102;2023-03-23T14:38:33;2.72;;;1.50;;
13660;SDS011;6903;49.480;11.102;2023-03-23T14:41:00;2.17;;;1.50;;
13660;SDS011;6903;49.480;11.102;2023-03-23T14:43:27;2.33;;;1.65;;
13660;SDS011;6903;49.480;11.102;2023-03-23T14:45:54;1.60;;;1.42;;
13660;SDS011;6903;49.480;11.102;2023-03-23T14:48:22;3.22;;;1.77;;
13660;SDS011;6903;49.480;11.102;2023-03-23T14:50:50;1.67;;;1.50;;
13660;SDS011;6903;49.480;11.102;2023-03-23T14:53:31;2.67;;;1.63;;
13660;SDS011;6903;49.480;11.102;2023-03-23T14:56:01;2.00;;;1.77;;
13660;SDS011;6903;49.480;11.102;2023-03-23T14:58:29;2.05;;;1.55;;
13660;SDS011;6903;49.480;11.102;2023-03-23T15:01:05;2.20;;;1.80;;
13660;SDS011;6903;49.480;11.102;2023-03-23T15:03:48;2.58;;;2.30;;
13660;SDS011;6903;49.480;11.102;2023-03-23T15:06:18;2.38;;;1.73;;
13660;SDS011;6903;49.480;11.102;2023-03-23T15:08:46;2.00;;;1.70;;
13660;SDS011;6903;49.480;11.102;2023-03-23T15:13:45;2.10;;;1.70;;
13660;SDS011;6903;49.480;11.102;2023-03-23T15:16:20;2.72;;;1.67;;
13660;SDS011;6903;49.480;11.102;2023-03-23T15:21:30;3.00;;;1.63;;
13660;SDS011;6903;49.480;11.102;2023-03-23T15:23:59;2.00;;;1.67;;
13660;SDS011;6903;49.480;11.102;2023-03-23T15:26:27;2.92;;;2.00;;
13660;SDS011;6903;49.480;11.102;2023-03-23T15:29:01;3.05;;;1.60;;
13660;SDS011;6903;49.480;11.102;2023-03-23T15:31:54;2.20;;;1.80;;
13660;SDS011;6903;49.480;11.102;2023-03-23T15:34:25;2.58;;;2.00;;
13660;SDS011;6903;49.480;11.102;2023-03-23T15:37:00;2.35;;;1.90;;
13660;SDS011;6903;49.480;11.102;2023-03-23T15:39:27;2.47;;;1.80;;
13660;SDS011;6903;49.480;11.102;2023-03-23T15:41:53;3.40;;;1.90;;
13660;SDS011;6903;49.480;11.102;2023-03-23T15:44:27;3.13;;;1.70;;
13660;SDS011;6903;49.480;11.102;2023-03-23T15:47:04;2.75;;;1.90;;
13660;SDS011;6903;49.480;11.102;2023-03-23T15:49:35;2.33;;;1.77;;
13660;SDS011;6903;49.480;11.102;2023-03-23T15:52:01;2.40;;;1.90;;
13660;SDS011;6903;49.480;11.102;2023-03-23T15:54:29;2.00;;;1.60;;
13660;SDS011;6903;49.480;11.102;2023-03-23T15:56:56;2.75;;;1.85;;
13660;SDS011;6903;49.480;11.102;2023-03-23T15:59:21;3.33;;;2.30;;
13660;SDS011;6903;49.480;11.102;2023-03-23T16:01:46;3.10;;;2.10;;
13660;SDS011;6903;49.480;11.102;2023-03-23T16:04:16;3.05;;;1.80;;
13660;SDS011;6903;49.480;11.102;2023-03-23T16:06:43;3.90;;;1.90;;
13660;SDS011;6903;49.480;11.102;2023-03-23T16:09:16;3.75;;;1.88;;
13660;SDS011;6903;49.480;11.102;2023-03-23T16:11:43;2.58;;;1.92;;
13660;SDS011;6903;49.480;11.102;2023-03-23T16:14:09;2.35;;;1.85;;
13660;SDS011;6903;49.480;11.102;2023-03-23T16:17:08;2.03;;;1.80;;
13660;SDS011;6903;49.480;11.102;2023-03-23T16:19:26;3.72;;;2.22;;
13660;SDS011;6903;49.480;11.102;2023-03-23T16:21:52;3.75;;;1.70;;
13660;SDS011;6903;49.480;11.102;2023-03-23T16:24:17;3.78;;;2.08;;
13660;SDS011;6903;49.480;11.102;2023-03-23T16:26:43;3.25;;;2.50;;
13660;SDS011;6903;49.480;11.102;2023-03-23T16:29:09;3.75;;;2.85;;
13660;SDS011;6903;49.480;11.102;2023-03-23T16:31:36;3.00;;;2.25;;
13660;SDS011;6903;49.480;11.102;2023-03-23T16:34:01;2.92;;;2.30;;
13660;SDS011;6903;49.480;11.102;2023-03-23T16:36:27;2.40;;;2.20;;
13660;SDS011;6903;49.480;11.102;2023-03-23T16:38:52;3.75;;;2.58;;
13660;SDS011;6903;49.480;11.102;2023-03-23T16:41:17;3.70;;;2.20;;
13660;SDS011;6903;49.480;11.102;2023-03-23T16:43:43;3.23;;;2.40;;
13660;SDS011;6903;49.480;11.102;2023-03-23T16:46:08;3.15;;;2.10;;
13660;SDS011;6903;49.480;11.102;2023-03-23T16:48:35;3.65;;;2.22;;